createdAt,value
2018-11-20T15:50:18.236Z,97131.09
2018-11-20T15:53:04.455Z,97134.92
2018-11-20T15:55:50.564Z,97135.22
2018-11-20T15:58:42.342Z,97140.81
2018-11-20T16:01:37.545Z,97142.80
2018-11-20T16:04:21.515Z,97148.36
2018-11-20T16:07:07.606Z,97146.75
2018-11-20T16:09:53.834Z,97153.58
2018-11-20T16:12:40.063Z,97152.19
2018-11-20T16:15:17.960Z,97150.98
2018-11-20T16:18:14.677Z,97154.44
2018-11-20T16:21:01.244Z,97160.05
2018-11-20T16:24:07.284Z,97172.75
2018-11-20T16:26:43.601Z,97183.31
2018-11-20T16:29:29.625Z,97189.05
2018-11-20T16:32:13.583Z,97187.48
2018-11-20T16:35:06.417Z,97194.61
2018-11-20T16:37:47.210Z,97196.13
2018-11-20T16:40:43.777Z,97208.53
2018-11-20T16:43:30.071Z,97212.79
2018-11-20T16:46:16.695Z,97219.91
2018-11-20T16:49:16.027Z,97219.18
2018-11-20T16:52:09.168Z,97227.00
2018-11-20T16:54:56.053Z,97226.80
2018-11-20T16:57:43.652Z,97230.31
2018-11-20T17:00:30.226Z,97232.37
2018-11-20T17:03:38.587Z,97240.36
2018-11-20T17:06:24.279Z,97249.17
2018-11-20T17:09:10.597Z,97252.17
2018-11-20T17:11:58.076Z,97252.25
2018-11-20T17:14:58.153Z,97255.48
2018-11-20T17:17:57.955Z,97259.78
2018-11-20T17:20:43.615Z,97259.90
2018-11-20T17:23:31.110Z,97268.64
2018-11-20T17:26:18.642Z,97268.20
2018-11-20T17:29:05.518Z,97281.83
2018-11-20T17:31:51.676Z,97287.30
2018-11-20T17:34:44.777Z,97286.18
2018-11-20T17:37:34.872Z,97292.17
2018-11-20T17:40:31.308Z,97284.75
2018-11-20T17:43:17.507Z,97296.05
2018-11-20T17:46:10.843Z,97304.28
2018-11-20T17:49:13.425Z,97295.86
2018-11-20T17:51:59.667Z,97310.59
2018-11-20T17:54:53.320Z,97320.55
2018-11-20T17:57:57.181Z,97321.77
2018-11-20T18:00:49.403Z,97325.70
2018-11-20T18:03:48.910Z,97337.41
2018-11-20T18:06:32.537Z,97346.72
2018-11-20T18:09:38.562Z,97343.38
2018-11-20T18:12:24.656Z,97349.27
2018-11-20T18:15:17.918Z,97348.20
2018-11-20T18:18:02.416Z,97350.14
2018-11-20T18:20:41.506Z,97350.03
2018-11-20T18:23:29.003Z,97346.72
2018-11-20T18:26:13.794Z,97349.27
2018-11-20T18:29:00.092Z,97343.33
2018-11-20T18:31:50.921Z,97347.66
2018-11-20T18:34:53.130Z,97350.34
2018-11-20T18:37:40.684Z,97343.28
2018-11-20T18:40:33.842Z,97347.28
2018-11-20T18:43:30.171Z,97346.16
2018-11-20T18:46:16.576Z,97350.23
2018-11-20T18:49:02.539Z,97347.91
2018-11-20T18:51:50.037Z,97350.05
2018-11-20T18:54:41.329Z,97358.31
2018-11-20T18:57:38.029Z,97359.98
2018-11-20T19:00:46.451Z,97359.44
2018-11-20T19:03:34.939Z,97365.75
2018-11-20T19:06:25.533Z,97366.98
2018-11-20T19:09:12.282Z,97369.38
2018-11-20T19:12:03.750Z,97369.55
2018-11-20T19:14:47.326Z,97371.30
2018-11-20T19:17:53.060Z,97380.49
2018-11-20T19:20:39.661Z,97386.95
2018-11-20T19:23:42.165Z,97395.77
2018-11-20T19:26:28.407Z,97401.63
2018-11-20T19:29:31.008Z,97406.98
2018-11-20T19:32:18.478Z,97411.71
2018-11-20T19:35:03.395Z,97415.46
2018-11-20T19:37:46.288Z,97420.63
2018-11-20T19:40:32.696Z,97426.86
2018-11-20T19:43:23.609Z,97433.43
2018-11-20T19:46:09.713Z,97430.54
2018-11-20T19:48:52.611Z,97445.73
2018-11-20T19:51:49.085Z,97452.83
2018-11-20T19:54:45.326Z,97454.73
2018-11-20T19:57:28.604Z,97461.72
2018-11-20T20:00:14.838Z,97467.91
2018-11-20T20:03:00.869Z,97466.81
2018-11-20T20:05:51.256Z,97471.52
2018-11-20T20:08:41.607Z,97472.07
2018-11-20T20:11:21.775Z,97482.02
2018-11-20T20:14:17.959Z,97485.69
2018-11-20T20:17:04.271Z,97492.18
2018-11-20T20:19:53.526Z,97494.84
2018-11-20T20:22:40.056Z,97496.80
2018-11-20T20:25:21.562Z,97502.94
2018-11-20T20:28:07.906Z,97506.17
2018-11-20T20:30:57.978Z,97509.31
2018-11-20T20:33:43.987Z,97511.73
2018-11-20T20:36:46.359Z,97509.56
2018-11-20T20:39:36.531Z,97513.72
2018-11-20T20:42:22.963Z,97508.08
2018-11-20T20:45:16.373Z,97518.27
2018-11-20T20:48:06.755Z,97521.20
2018-11-20T20:51:12.542Z,97526.27
2018-11-20T20:54:06.761Z,97531.30
2018-11-20T20:56:56.271Z,97533.29
2018-11-20T20:59:46.446Z,97544.16
2018-11-20T21:02:32.357Z,97540.77
2018-11-20T21:05:10.142Z,97548.00
2018-11-20T21:08:00.207Z,97544.81
2018-11-20T21:10:46.192Z,97543.96
2018-11-20T21:13:29.782Z,97545.14
2018-11-20T21:16:23.624Z,97538.92
2018-11-20T21:19:01.632Z,97540.25
2018-11-20T21:21:47.803Z,97537.81
2018-11-20T21:24:30.217Z,97541.11
2018-11-20T21:27:26.774Z,97540.34
2018-11-20T21:30:12.883Z,97536.40
2018-11-20T21:32:55.017Z,97538.56
2018-11-20T21:35:51.241Z,97542.62
2018-11-20T21:38:53.794Z,97542.98
2018-11-20T21:41:41.312Z,97544.96
2018-11-20T21:44:27.374Z,97548.63
2018-11-20T21:47:14.881Z,97548.97
2018-11-20T21:50:00.899Z,97549.15
2018-11-20T21:53:00.261Z,97558.64
2018-11-20T21:55:53.668Z,97556.08
2018-11-20T21:58:33.884Z,97557.41
2018-11-20T22:01:22.679Z,97560.23
2018-11-20T22:04:28.351Z,97560.90
2018-11-20T22:07:15.363Z,97562.85
2018-11-20T22:10:20.043Z,97563.52
2018-11-20T22:13:19.405Z,97562.85
2018-11-20T22:16:04.880Z,97568.14
2018-11-20T22:19:04.238Z,97575.50
2018-11-20T22:21:41.062Z,97587.18
2018-11-20T22:24:26.684Z,97584.08
2018-11-20T22:27:13.481Z,97587.12
2018-11-20T22:30:03.793Z,97590.63
2018-11-20T22:33:01.775Z,97596.17
2018-11-20T22:35:47.834Z,97593.20
2018-11-20T22:38:38.207Z,97596.53
2018-11-20T22:41:28.579Z,97598.33
2018-11-20T22:44:14.596Z,97597.02
2018-11-20T22:47:11.341Z,97599.99
2018-11-20T22:49:54.613Z,97603.11
2018-11-20T22:53:00.257Z,97609.72
2018-11-20T22:55:54.107Z,97601.96
2018-11-20T22:58:38.281Z,97613.76
2018-11-20T23:01:25.755Z,97607.52
2018-11-20T23:04:12.185Z,97613.58
2018-11-20T23:06:58.785Z,97612.15
2018-11-20T23:09:27.218Z,97621.45
2018-11-20T23:11:55.607Z,97616.44
2018-11-20T23:14:24.049Z,97627.41
2018-11-20T23:16:52.433Z,97634.74
2018-11-20T23:19:20.866Z,97636.71
2018-11-20T23:21:49.264Z,97639.68
2018-11-20T23:24:17.939Z,97636.27
2018-11-20T23:26:46.377Z,97641.69
2018-11-20T23:29:14.758Z,97640.52
2018-11-20T23:31:43.186Z,97632.34
2018-11-20T23:34:11.647Z,97638.59
2018-11-20T23:36:40.069Z,97638.25
2018-11-20T23:39:09.747Z,97634.49
2018-11-20T23:41:38.162Z,97639.07
2018-11-20T23:44:06.553Z,97634.14
2018-11-20T23:46:34.995Z,97637.24
2018-11-20T23:49:03.391Z,97634.31
2018-11-20T23:51:31.829Z,97640.91
2018-11-20T23:54:00.266Z,97639.86
2018-11-20T23:56:28.712Z,97637.41
2018-11-20T23:58:57.142Z,97643.02
